Port Jefferson, Ohio
Current Conditions -  °F | °C
As of 11:30 AM on Friday 31 Oct 2014 (Local Time) from KEDJ Reporting Station
Scattered Clouds Scattered Clouds  
Wind Chill: 37°   Ceiling: Unl
Heat Index: 41°   Visibility: 4mi
Dew Point: 39°   Wind: 6mph
Humidity: 93%   Direction: 250°WSW
Pressure: 29.92"   Gusts: NA
Location:  40.33°N, 84.09°W
Report Text: KEDJ 311530Z AUTO 25005KT 4SM SCT023 SCT031 05/04 A2992 RMK AO1 P0001
Loading
Personal Weather Stations






























Interactive Weather Map
Tropical Storm Tracking
New forecast layout! Learn more

10-Day Weather Forecast

Advertisements
Track Severe Weather on mobile